Foggia / Gino Lisa Airport LIBF

Flugplatz Daten

Name: Foggia / Gino Lisa Airport

Ident: LIBF

Lat: 41,43289948

Long: 15,53499985

Platzhöhe: 265 ft

IataCode: FOG

City: Foggia

Metar

2021/08/05 13:50
LIBF 051350Z 22025KT 9999 FEW050 30/13 Q1007

Taf

2021/08/05 12:00
TAF LIBF 051100Z 0512/0612 24020G30KT 9999 FEW040
BECMG 0522/0524 26012KT
BECMG 0606/0609 36008KT
Gewünschte Webcam nicht vorhanden? Dann fügen Sie eine hinzu. Sie wird dann so schnell wie möglich freigeschaltet
Url: Title: